Hovedside
METAR-TAF:

METAR-TAF

Lufthavner :

Lycksele, Sverige

Lycksele lufthavn

breddegrad: 64-32-51N, lengdegrad: 018-43-03E, høyde over havet: 211 m

Gjeldene værobservasjon

Denne rapporten ble laget for 30 minutter siden, klokken 20:20 UTC
Vind 17 kt fra Vest-nordvest med vindkast opp mot 28 kt
Temperatur 3°C
Luftfuktighet 56%
Trykk 1009 hPa
Sikt 10 km eller mer

METAR: ESNL 262020Z AUTO 29017G28KT 9999 NCD 03/M05 Q1009

Tid: 22:50 (20:50 UTC)


TAF: fraværende

Værobservasjoner og værvarsel for over 4000 flyplasser (METAR- og TAF-rapporter).

Tilgjengelige stasjoner er representert av de røde og gule prikkene på kartet.

Hold musepekeren over prikken for å se navnet på stasjonen.

Klikk så for å se værobservasjoner og -varsler.

For å forandre kartet kan du klikke på den grønne knappen med svart kryss for å zoome inn, på den grønne knappen med strek for å zoome ut, eller på de grønne pilene for å se tilstøtende kart.


METAR-TAF: